Gimhae International Airport
RKPK : now visible

Airfield :











YOU CAN JOIN US ON...

 
LOGIN :

Register | Disclaimer

   EN    FR    IT 

 









Legend :    VFR   Marginal VFR   IFR   Intensive IFR   Very Intensive IFR
Visi :
Ceiling :
>= 8 km
>= 3000ft
5 to 8 km
1000 to 3000 ft
1500m to 5 km
500 to 1000 ft
800 to 1500m
200 to 500 ft
< 800m
< 200 ft
Symbols :   Thunderstorms  Fog  Heavy snow  Heavy precipitations  Wind > 20 kt






- Airport Elevation : 6 ft
- IATA code : PUS


RKPK - Gimhae International

CURRENT METAR :
  • 121900Z 36003KT CAVOK 06/04 Q1021

EXPIRED METARs :
  • 121800Z 36003KT CAVOK 06/04 Q1021
  • 121700Z 36004KT CAVOK 08/05 Q1021

TAF TAF RKPK
Valid from the 12 at 18:00 until the 14 at 00:00 UTC


121700Z 1218/1324 24006KT 9999 SCT030 SCT180 TN08/1221Z TX17/1306Z
BECMG 1300/1301 SCT030 BKN100
TEMPO 1309/1315 24012KT 4800 -RA BR BKN030 BKN100
BECMG 1315/1316 36008KT SCT030



MET'MAP, your aeronautical weather chart ! - Copyright ORBIFLY December 2007 - Disclaimer

ORBIFLY MET'MAP TEAM :

Programming & Development : Alexandra Zaïnal
Concept & Development : Baudouin d'Aumeries
Co-Development & Prog : Marc-Olivier Méhu
Technical & hardware support : Manuel Goepfert

Contact : metmap@orbifly.com




SOURCES & CREDITS :

   NOAA       Earth
Advisory